Pagrindinis puslapis
METAR-TAF:

METAR-TAF

Oro uostai :

Cabo Frio, Rio de Janeiro, Brazilija

platuma: 22-55-15S, ilguma: 042-04-17W, Aukštis: 7 m

Dabartinis oras

Ataskaita buvo paskelbta 1 valandą ir 22 minutes, ne 21:00 UTC
Vėjas 9 kt iš Rytų
Temperatūra 24°C
Drėgmė 89%
Slėgis 1009 hPa
Matomumas 10 km arba daugiau
Su prošvaistėmis ne aukštis 1500 ft
Su prošvaistėmis ne aukštis 6000 ft

METAR: SBCB 122100Z 08009KT 9999 BKN015 BKN060 24/22 Q1009

Laikas: 19:22 (22:22 UTC)

Prognozė

Ataskaita buvo paskelbta 5 valandos ir 25 minutes, ne 16:57 UTC
Prognozė galioja nuo 12 metu 18 UTC su 13 metu 18 UTC
Vėjas 15 kt iš Rytų/Šiaurės Rytų
Matomumas 10 km arba daugiau
Išsisklaidę debesys ne aukštis 2500 ft
Laikinai
nuo 12 metu 18 UTC su 12 metu 21 UTC
Matomumas: 5000 m
lietus

TAF: SBCB 121657Z 1218/1318 06015KT 9999 SCT025 TX27/1218Z TN22/1309Z TEMPO 1218/1221 5000 RA RMK PHQ

Orai ataskaitas ir orų prognozės (METAR, TAF).

turimą stotys yra geltonos ir raudonos taškus žemėlapyje.

Perkelti pele per norėdami pamatyti stoties vardą.

Tada spustelėkite, norėdami matyti oro stebėjimo ir prognozės.

Norėdami pakeisti žemėlapį: spustelėkite ant žalios mygtukų su juodo kryžiaus žemyn,; žalią mygtuką su brūkšneliu, jei norite nutolinti; arba žalių rodyklių gretimoms žemėlapius.


METAR-TAF: